createdAt,value
2023-05-02T00:00:16.233Z,100768.98
2023-05-02T00:02:46.383Z,100767.45
2023-05-02T00:05:13.929Z,100769.95
2023-05-02T00:07:41.160Z,100768.95
2023-05-02T00:10:09.329Z,100772.04
2023-05-02T00:12:36.592Z,100774.54
2023-05-02T00:15:04.656Z,100772.36
2023-05-02T00:17:32.224Z,100773.07
2023-05-02T00:20:09.618Z,100776.71
2023-05-02T00:22:44.251Z,100777.55
2023-05-02T00:25:16.439Z,100778.38
2023-05-02T00:27:47.102Z,100783.02
2023-05-02T00:30:15.120Z,100784.70
2023-05-02T00:32:42.705Z,100782.45
2023-05-02T00:35:10.592Z,100780.84
2023-05-02T00:37:39.299Z,100783.29
2023-05-02T00:40:08.431Z,100786.70
2023-05-02T00:42:36.837Z,100791.66
2023-05-02T00:45:06.702Z,100793.64
2023-05-02T00:47:34.591Z,100795.87
2023-05-02T00:50:02.638Z,100796.98
2023-05-02T00:52:31.633Z,100800.43
2023-05-02T00:55:00.641Z,100803.14
2023-05-02T00:57:27.909Z,100804.43
2023-05-02T00:59:55.350Z,100808.63
2023-05-02T01:02:22.749Z,100809.48
2023-05-02T01:05:00.815Z,100811.91
2023-05-02T01:07:51.105Z,100811.48
2023-05-02T01:10:21.439Z,100808.40
2023-05-02T01:13:00.914Z,100811.35
2023-05-02T01:15:31.637Z,100814.63
2023-05-02T01:18:01.085Z,100812.90
2023-05-02T01:20:29.251Z,100817.46
2023-05-02T01:22:58.566Z,100817.24
2023-05-02T01:26:03.865Z,100816.73
2023-05-02T01:28:53.648Z,100815.31
2023-05-02T01:31:20.822Z,100816.81
2023-05-02T01:33:48.558Z,100816.40
2023-05-02T01:36:17.379Z,100818.65
2023-05-02T01:38:45.707Z,100820.98
2023-05-02T01:41:14.292Z,100821.66
2023-05-02T01:43:41.647Z,100826.62
2023-05-02T01:46:13.836Z,100823.88
2023-05-02T01:48:43.849Z,100828.59
2023-05-02T01:51:12.627Z,100827.87
2023-05-02T01:53:40.833Z,100829.45
2023-05-02T01:56:07.883Z,100827.62
2023-05-02T01:58:35.021Z,100831.97
2023-05-02T02:01:04.433Z,100830.52
2023-05-02T02:03:34.086Z,100830.98
2023-05-02T02:06:01.401Z,100831.61
2023-05-02T02:08:30.056Z,100829.86
2023-05-02T02:11:02.018Z,100832.56
2023-05-02T02:13:35.994Z,100830.52
2023-05-02T02:16:06.041Z,100831.53
2023-05-02T02:18:37.606Z,100830.72
2023-05-02T02:21:12.222Z,100829.27
2023-05-02T02:23:39.469Z,100827.79
2023-05-02T02:26:14.610Z,100824.08
2023-05-02T02:28:43.094Z,100824.83
2023-05-02T02:31:10.761Z,100823.77
2023-05-02T02:33:38.379Z,100823.00
2023-05-02T02:36:23.996Z,100823.86
2023-05-02T02:38:56.426Z,100822.35
2023-05-02T02:41:29.558Z,100824.63
2023-05-02T02:44:26.300Z,100819.15
2023-05-02T02:47:23.364Z,100820.64
2023-05-02T02:50:07.913Z,100823.34
2023-05-02T02:52:48.064Z,100827.81
2023-05-02T02:55:48.190Z,100828.06
2023-05-02T02:58:41.051Z,100828.46
2023-05-02T03:01:20.040Z,100832.00
2023-05-02T03:03:51.274Z,100837.98
2023-05-02T03:06:20.536Z,100842.96
2023-05-02T03:08:49.307Z,100840.74
2023-05-02T03:11:24.442Z,100849.23
2023-05-02T03:13:53.546Z,100853.48
2023-05-02T03:16:36.964Z,100854.85
2023-05-02T03:19:12.019Z,100859.55
2023-05-02T03:21:47.155Z,100861.52
2023-05-02T03:24:19.507Z,100864.02
2023-05-02T03:26:50.353Z,100865.30
2023-05-02T03:29:22.008Z,100865.09
2023-05-02T03:31:49.659Z,100868.19
2023-05-02T03:34:16.905Z,100871.92
2023-05-02T03:36:54.057Z,100871.60
2023-05-02T03:39:26.389Z,100872.52
2023-05-02T03:42:04.595Z,100872.23
2023-05-02T03:44:31.843Z,100875.41
2023-05-02T03:46:58.980Z,100874.09
2023-05-02T03:49:28.395Z,100872.86
2023-05-02T03:51:55.648Z,100876.68
2023-05-02T03:54:29.463Z,100878.14
2023-05-02T03:57:08.381Z,100877.17
2023-05-02T03:59:37.582Z,100880.48
2023-05-02T04:02:09.495Z,100881.06
2023-05-02T04:04:41.377Z,100877.16
2023-05-02T04:07:18.897Z,100883.05
2023-05-02T04:09:49.649Z,100889.56
2023-05-02T04:12:19.036Z,100879.85
2023-05-02T04:14:51.624Z,100886.11
2023-05-02T04:17:21.534Z,100889.27
2023-05-02T04:19:50.318Z,100893.15
2023-05-02T04:22:18.719Z,100893.31
2023-05-02T04:24:52.306Z,100898.20
2023-05-02T04:27:22.010Z,100902.15
2023-05-02T04:29:50.037Z,100902.52
2023-05-02T04:32:18.310Z,100903.83
2023-05-02T04:34:46.183Z,100905.78
2023-05-02T04:37:13.944Z,100905.84
2023-05-02T04:39:43.245Z,100911.79
2023-05-02T04:42:36.360Z,100916.35
2023-05-02T04:45:12.722Z,100914.10
2023-05-02T04:47:52.820Z,100913.67
2023-05-02T04:50:20.165Z,100912.27
2023-05-02T04:52:50.457Z,100915.96
2023-05-02T04:55:17.505Z,100915.51
2023-05-02T04:57:46.606Z,100914.80
2023-05-02T05:00:16.118Z,100916.90
2023-05-02T05:02:44.308Z,100916.86
2023-05-02T05:05:13.716Z,100916.91
2023-05-02T05:07:41.134Z,100922.38
2023-05-02T05:10:11.375Z,100922.45
2023-05-02T05:12:46.565Z,100926.05
2023-05-02T05:15:14.696Z,100925.39
2023-05-02T05:17:46.819Z,100922.87
2023-05-02T05:20:14.224Z,100922.16
2023-05-02T05:22:42.601Z,100926.75
2023-05-02T05:25:11.819Z,100930.30
2023-05-02T05:27:40.080Z,100930.29
2023-05-02T05:30:09.403Z,100930.30
2023-05-02T05:32:36.986Z,100930.27
2023-05-02T05:35:05.012Z,100934.52
2023-05-02T05:37:32.566Z,100933.80
2023-05-02T05:40:22.045Z,100935.91
2023-05-02T05:42:54.237Z,100927.84
2023-05-02T05:45:31.293Z,100932.80
2023-05-02T05:47:58.407Z,100934.48
2023-05-02T05:50:32.045Z,100932.04
2023-05-02T05:53:01.989Z,100931.16
2023-05-02T05:55:32.249Z,100929.31
2023-05-02T05:58:07.633Z,100929.73
2023-05-02T06:00:41.986Z,100921.63
2023-05-02T06:03:15.166Z,100917.86
2023-05-02T06:05:42.596Z,100922.64
2023-05-02T06:08:09.754Z,100924.02
2023-05-02T06:10:40.284Z,100923.37
2023-05-02T06:13:08.043Z,100923.70
2023-05-02T06:15:38.633Z,100926.52
2023-05-02T06:18:07.304Z,100927.04
2023-05-02T06:20:37.002Z,100925.52
2023-05-02T06:23:04.630Z,100924.02
2023-05-02T06:25:33.236Z,100926.15
2023-05-02T06:28:02.724Z,100928.12
2023-05-02T06:30:29.771Z,100928.99
2023-05-02T06:33:01.972Z,100932.16
2023-05-02T06:35:29.291Z,100928.05
2023-05-02T06:38:02.468Z,100932.11
2023-05-02T06:40:29.947Z,100931.62
2023-05-02T06:43:00.230Z,100925.06
2023-05-02T06:45:33.723Z,100931.48
2023-05-02T06:48:03.554Z,100934.77
2023-05-02T06:50:30.930Z,100934.52
2023-05-02T06:52:59.005Z,100936.30
2023-05-02T06:55:27.382Z,100939.07
2023-05-02T06:57:55.354Z,100941.90
2023-05-02T07:00:22.573Z,100937.55
2023-05-02T07:03:11.508Z,100938.86
2023-05-02T07:05:39.142Z,100936.55
2023-05-02T07:08:06.999Z,100936.50
2023-05-02T07:10:34.159Z,100936.54
2023-05-02T07:13:01.393Z,100937.16
2023-05-02T07:15:28.460Z,100940.46
2023-05-02T07:17:55.614Z,100933.71
2023-05-02T07:20:23.430Z,100935.25
2023-05-02T07:22:50.887Z,100936.35
2023-05-02T07:25:18.320Z,100942.80
2023-05-02T07:27:46.047Z,100945.41
2023-05-02T07:30:13.830Z,100941.31
2023-05-02T07:32:40.959Z,100943.98
2023-05-02T07:35:08.480Z,100938.05
2023-05-02T07:37:37.958Z,100936.39
2023-05-02T07:40:06.237Z,100944.42
2023-05-02T07:42:34.407Z,100943.09
2023-05-02T07:45:01.482Z,100942.11
2023-05-02T07:47:29.528Z,100936.79
2023-05-02T07:49:57.067Z,100934.64
2023-05-02T07:52:24.517Z,100934.73
2023-05-02T07:54:52.164Z,100932.20
2023-05-02T07:57:19.479Z,100930.02
2023-05-02T07:59:46.531Z,100928.74
2023-05-02T08:02:14.291Z,100932.09
2023-05-02T08:04:43.462Z,100931.62
2023-05-02T08:07:10.804Z,100934.06
2023-05-02T08:09:38.015Z,100929.12
2023-05-02T08:12:05.675Z,100928.21
2023-05-02T08:14:32.648Z,100928.76
2023-05-02T08:20:07.106Z,100926.55
2023-05-02T08:22:34.517Z,100930.83
2023-05-02T08:25:01.885Z,100931.94
2023-05-02T08:27:28.916Z,100931.64
2023-05-02T08:30:00.638Z,100931.46
2023-05-02T08:32:29.523Z,100924.33
2023-05-02T08:34:59.546Z,100919.77
2023-05-02T08:37:26.921Z,100919.96
2023-05-02T08:39:53.931Z,100909.43
2023-05-02T08:42:23.327Z,100906.88
2023-05-02T08:44:50.569Z,100897.98
2023-05-02T08:47:18.950Z,100892.36
2023-05-02T08:49:46.513Z,100895.48
2023-05-02T08:52:13.726Z,100889.87
2023-05-02T08:54:41.892Z,100889.46
2023-05-02T08:57:09.059Z,100892.16
2023-05-02T08:59:36.104Z,100885.60
2023-05-02T09:02:27.926Z,100878.33
2023-05-02T09:04:56.185Z,100878.67
2023-05-02T09:07:23.447Z,100878.16
2023-05-02T09:09:51.412Z,100882.21
2023-05-02T09:12:26.533Z,100877.66
2023-05-02T09:15:32.718Z,100868.27
2023-05-02T09:18:21.141Z,100864.76
2023-05-02T09:20:51.690Z,100863.39
2023-05-02T09:23:21.013Z,100863.35
2023-05-02T09:25:52.977Z,100859.50
2023-05-02T09:28:20.228Z,100854.25
2023-05-02T09:30:48.206Z,100846.18
2023-05-02T09:33:16.547Z,100854.83
2023-05-02T09:35:54.284Z,100850.56
2023-05-02T09:38:27.374Z,100847.83
2023-05-02T09:40:57.799Z,100847.27
2023-05-02T09:43:25.158Z,100847.38
2023-05-02T09:46:02.719Z,100841.72
2023-05-02T09:48:31.140Z,100847.82
2023-05-02T09:50:58.276Z,100844.44
2023-05-02T09:53:27.743Z,100831.06
2023-05-02T09:56:03.672Z,100837.45
2023-05-02T09:58:31.336Z,100836.48
2023-05-02T10:01:07.198Z,100842.42
2023-05-02T10:03:38.212Z,100837.10
2023-05-02T10:06:05.805Z,100838.25
2023-05-02T10:08:33.869Z,100833.39
2023-05-02T10:11:02.248Z,100833.08
2023-05-02T10:13:32.879Z,100827.84
2023-05-02T10:16:05.081Z,100821.29
2023-05-02T10:19:04.118Z,100824.15
2023-05-02T10:21:31.395Z,100822.63
2023-05-02T10:23:59.496Z,100818.98
2023-05-02T10:26:28.255Z,100812.86
2023-05-02T10:28:57.777Z,100813.64
2023-05-02T10:31:25.737Z,100819.35
2023-05-02T10:33:53.076Z,100812.42
2023-05-02T10:36:24.061Z,100808.55
2023-05-02T10:38:51.497Z,100807.75
2023-05-02T10:41:23.474Z,100810.88
2023-05-02T10:43:50.899Z,100805.16
2023-05-02T10:46:38.086Z,100804.99
2023-05-02T10:49:15.296Z,100803.24
2023-05-02T10:51:43.075Z,100801.91
2023-05-02T10:54:16.661Z,100798.82
2023-05-02T10:57:03.898Z,100796.52
2023-05-02T10:59:41.288Z,100795.75
2023-05-02T11:02:25.556Z,100795.90
2023-05-02T11:05:06.015Z,100783.70
2023-05-02T11:07:34.374Z,100787.23
2023-05-02T11:10:22.732Z,100791.55
2023-05-02T11:12:52.162Z,100790.90
2023-05-02T11:15:28.922Z,100787.80
2023-05-02T11:18:11.697Z,100782.14
2023-05-02T11:20:40.324Z,100787.17
2023-05-02T11:23:23.031Z,100787.60
2023-05-02T11:25:54.400Z,100787.01
2023-05-02T11:28:37.198Z,100779.48
2023-05-02T11:31:05.530Z,100776.21
2023-05-02T11:33:36.011Z,100771.97
2023-05-02T11:36:16.714Z,100769.55
2023-05-02T11:38:44.472Z,100759.26
2023-05-02T11:41:15.081Z,100765.57
2023-05-02T11:43:42.836Z,100764.79
2023-05-02T11:46:20.488Z,100761.50
2023-05-02T11:48:51.185Z,100766.05
2023-05-02T11:51:23.038Z,100764.56
2023-05-02T11:53:50.693Z,100761.92
2023-05-02T11:56:17.842Z,100749.89
2023-05-02T11:58:48.266Z,100749.89
2023-05-02T12:01:19.008Z,100744.48
2023-05-02T12:04:07.831Z,100743.59
2023-05-02T12:06:35.475Z,100742.79
2023-05-02T12:09:20.609Z,100743.00
2023-05-02T12:11:52.875Z,100738.67
2023-05-02T12:14:30.152Z,100739.41
2023-05-02T12:16:58.665Z,100733.22
2023-05-02T12:19:25.889Z,100728.77
2023-05-02T12:21:53.257Z,100730.24
2023-05-02T12:24:21.592Z,100728.66
2023-05-02T12:26:49.757Z,100731.08
2023-05-02T12:29:18.192Z,100731.46
2023-05-02T12:31:55.145Z,100724.62
2023-05-02T12:34:35.288Z,100721.02
2023-05-02T12:37:03.664Z,100721.52
2023-05-02T12:39:42.008Z,100715.84
2023-05-02T12:42:16.051Z,100711.22
2023-05-02T12:44:45.947Z,100712.60
2023-05-02T12:47:14.448Z,100713.42
2023-05-02T12:49:57.679Z,100712.87
2023-05-02T12:52:51.251Z,100711.27
2023-05-02T12:55:28.397Z,100707.77
2023-05-02T12:58:05.290Z,100705.59
2023-05-02T13:00:33.197Z,100703.42
2023-05-02T13:03:00.488Z,100699.84
2023-05-02T13:05:27.649Z,100696.30
2023-05-02T13:07:56.860Z,100689.61
2023-05-02T13:10:25.336Z,100686.17
2023-05-02T13:12:53.651Z,100689.94
2023-05-02T13:15:21.318Z,100690.08
2023-05-02T13:17:51.056Z,100692.94
2023-05-02T13:20:19.164Z,100687.16
2023-05-02T13:22:46.305Z,100688.48
2023-05-02T13:25:13.351Z,100693.87
2023-05-02T13:27:41.418Z,100691.05
2023-05-02T13:30:10.309Z,100686.01
2023-05-02T13:32:37.761Z,100681.57
2023-05-02T13:35:05.960Z,100676.92
2023-05-02T13:37:33.217Z,100672.11
2023-05-02T13:40:02.166Z,100671.91
2023-05-02T13:42:29.567Z,100667.91
2023-05-02T13:44:56.819Z,100665.17
2023-05-02T13:47:24.569Z,100664.64
2023-05-02T13:49:51.554Z,100663.52
2023-05-02T13:52:19.193Z,100663.34
2023-05-02T13:54:46.653Z,100666.38
2023-05-02T13:57:13.806Z,100667.21
2023-05-02T13:59:41.154Z,100668.83
2023-05-02T14:02:08.371Z,100665.83
2023-05-02T14:04:35.623Z,100669.66
2023-05-02T14:07:04.052Z,100665.30
2023-05-02T14:09:32.214Z,100657.88
2023-05-02T14:11:59.161Z,100654.70
2023-05-02T14:14:26.309Z,100658.29
2023-05-02T14:16:54.214Z,100655.31
2023-05-02T14:19:21.250Z,100647.73
2023-05-02T14:21:49.836Z,100640.30
2023-05-02T14:24:18.636Z,100640.02
2023-05-02T14:26:46.080Z,100640.56
2023-05-02T14:29:14.257Z,100638.61
2023-05-02T14:31:46.277Z,100639.60
2023-05-02T14:34:13.485Z,100636.38
2023-05-02T14:36:40.729Z,100638.63
2023-05-02T14:39:07.877Z,100641.31
2023-05-02T14:41:35.036Z,100635.05
2023-05-02T14:44:03.608Z,100632.98
2023-05-02T14:46:31.424Z,100631.46
2023-05-02T14:48:58.526Z,100625.77
2023-05-02T14:51:26.492Z,100623.80
2023-05-02T14:53:54.593Z,100620.84
2023-05-02T14:56:21.919Z,100624.05
2023-05-02T14:58:49.277Z,100627.45
2023-05-02T15:01:17.926Z,100623.14
2023-05-02T15:04:04.273Z,100622.27
2023-05-02T15:06:33.488Z,100617.96
2023-05-02T15:09:01.971Z,100615.51
2023-05-02T15:11:28.993Z,100609.44
2023-05-02T15:13:58.836Z,100607.11
2023-05-02T15:16:27.629Z,100605.64
2023-05-02T15:18:57.615Z,100601.17
2023-05-02T15:21:24.659Z,100602.02
2023-05-02T15:23:51.807Z,100600.09
2023-05-02T15:26:19.077Z,100603.61
2023-05-02T15:28:46.110Z,100601.38
2023-05-02T15:31:13.266Z,100595.58
2023-05-02T15:33:40.924Z,100591.00
2023-05-02T15:36:08.591Z,100586.94
2023-05-02T15:38:39.639Z,100590.27
2023-05-02T15:41:08.313Z,100583.40
2023-05-02T15:43:35.672Z,100582.46
2023-05-02T15:46:02.759Z,100579.04
2023-05-02T15:48:31.510Z,100582.79
2023-05-02T15:50:58.759Z,100584.59
2023-05-02T15:53:26.021Z,100582.11
2023-05-02T15:55:53.572Z,100582.52
2023-05-02T15:58:20.925Z,100580.88
2023-05-02T16:00:48.280Z,100575.42
2023-05-02T16:03:15.970Z,100570.15
2023-05-02T16:05:43.204Z,100572.23
2023-05-02T16:08:10.753Z,100566.58
2023-05-02T16:10:40.574Z,100564.41
2023-05-02T16:13:07.722Z,100564.34
2023-05-02T16:15:34.894Z,100564.91
2023-05-02T16:18:02.683Z,100570.51
2023-05-02T16:20:32.650Z,100569.41
2023-05-02T16:23:00.210Z,100565.48
2023-05-02T16:25:27.257Z,100562.12
2023-05-02T16:27:55.331Z,100557.80
2023-05-02T16:30:22.691Z,100557.09
2023-05-02T16:32:50.060Z,100554.85
2023-05-02T16:35:17.704Z,100553.33
2023-05-02T16:37:44.754Z,100556.33
2023-05-02T16:40:15.294Z,100564.12
2023-05-02T16:42:44.599Z,100561.16
2023-05-02T16:45:15.523Z,100560.39
2023-05-02T16:47:43.414Z,100562.19
2023-05-02T16:50:13.167Z,100563.08
2023-05-02T16:52:44.952Z,100561.64
2023-05-02T16:55:16.785Z,100559.80
2023-05-02T16:57:44.078Z,100554.08
2023-05-02T17:00:12.608Z,100561.78
2023-05-02T17:02:40.027Z,100564.13
2023-05-02T17:05:07.768Z,100565.92
2023-05-02T17:07:37.797Z,100560.02
2023-05-02T17:10:06.126Z,100563.49
2023-05-02T17:12:33.541Z,100567.23
2023-05-02T17:15:02.197Z,100565.14
2023-05-02T17:17:31.148Z,100567.05
2023-05-02T17:19:58.490Z,100565.29
2023-05-02T17:22:26.651Z,100563.45
2023-05-02T17:24:55.014Z,100566.24
2023-05-02T17:27:22.068Z,100569.30
2023-05-02T17:29:49.121Z,100574.27
2023-05-02T17:32:17.263Z,100580.24
2023-05-02T17:34:45.753Z,100584.25
2023-05-02T17:37:13.328Z,100586.42
2023-05-02T17:39:41.401Z,100587.45
2023-05-02T17:42:08.450Z,100589.80
2023-05-02T17:44:38.579Z,100588.71
2023-05-02T17:47:06.543Z,100593.13
2023-05-02T17:49:34.131Z,100596.98
2023-05-02T17:52:02.086Z,100599.51
2023-05-02T17:54:29.655Z,100600.13
2023-05-02T17:56:57.518Z,100603.47
2023-05-02T17:59:24.784Z,100610.20
2023-05-02T18:01:52.289Z,100609.22
2023-05-02T18:04:19.489Z,100601.05
2023-05-02T18:06:46.467Z,100607.02
2023-05-02T18:09:13.640Z,100609.88
2023-05-02T18:11:40.778Z,100612.48
2023-05-02T18:14:07.730Z,100612.65
2023-05-02T18:16:36.630Z,100613.80
2023-05-02T18:19:04.214Z,100611.55
2023-05-02T18:21:35.735Z,100607.67
2023-05-02T18:24:02.986Z,100604.52
2023-05-02T18:26:30.234Z,100604.16
2023-05-02T18:28:57.616Z,100607.32
2023-05-02T18:31:24.658Z,100608.33
2023-05-02T18:33:55.773Z,100606.30
2023-05-02T18:36:27.497Z,100604.40
2023-05-02T18:39:00.753Z,100602.61
2023-05-02T18:41:27.856Z,100605.48
2023-05-02T18:43:55.474Z,100604.79
2023-05-02T18:46:23.374Z,100602.25
2023-05-02T18:48:50.499Z,100601.90
2023-05-02T18:51:21.113Z,100604.14
2023-05-02T18:53:49.400Z,100602.78
2023-05-02T18:56:16.642Z,100600.16
2023-05-02T18:58:43.700Z,100597.03
2023-05-02T19:01:16.897Z,100598.21
2023-05-02T19:03:44.401Z,100597.62
2023-05-02T19:06:12.027Z,100599.96
2023-05-02T19:08:40.551Z,100601.66
2023-05-02T19:11:07.736Z,100601.98
2023-05-02T19:13:34.805Z,100599.30
2023-05-02T19:16:01.957Z,100597.86
2023-05-02T19:18:29.126Z,100599.29
2023-05-02T19:20:56.336Z,100599.33
2023-05-02T19:23:23.398Z,100599.41
2023-05-02T19:25:50.591Z,100595.80
2023-05-02T19:28:22.636Z,100598.04
2023-05-02T19:30:49.660Z,100596.52
2023-05-02T19:33:16.954Z,100597.34
2023-05-02T19:35:44.978Z,100602.23
2023-05-02T19:38:12.849Z,100599.88
2023-05-02T19:40:40.099Z,100596.23
2023-05-02T19:43:07.051Z,100598.77
2023-05-02T19:45:34.114Z,100599.48
2023-05-02T19:48:01.407Z,100597.30
2023-05-02T19:50:28.904Z,100598.63
2023-05-02T19:52:56.885Z,100595.36
2023-05-02T19:55:24.055Z,100592.14
2023-05-02T19:57:51.177Z,100594.44
2023-05-02T20:00:18.559Z,100596.48
2023-05-02T20:02:46.183Z,100596.63
2023-05-02T20:05:13.546Z,100598.23
2023-05-02T20:07:42.762Z,100597.59
2023-05-02T20:10:10.110Z,100598.48
2023-05-02T20:12:39.617Z,100597.82
2023-05-02T20:15:07.269Z,100592.41
2023-05-02T20:17:34.461Z,100593.66
2023-05-02T20:20:07.519Z,100593.48
2023-05-02T20:23:02.636Z,100592.81
2023-05-02T20:25:29.968Z,100589.84
2023-05-02T20:27:59.778Z,100588.27
2023-05-02T20:30:27.154Z,100587.77
2023-05-02T20:32:55.704Z,100584.99
2023-05-02T20:35:23.064Z,100584.66
2023-05-02T20:39:12.185Z,100583.52
2023-05-02T20:41:39.490Z,100583.23
2023-05-02T20:44:06.650Z,100587.82
2023-05-02T20:46:34.180Z,100585.27
2023-05-02T20:49:05.967Z,100582.94
2023-05-02T20:51:33.010Z,100581.95
2023-05-02T20:54:00.262Z,100583.03
2023-05-02T20:56:27.624Z,100583.39
2023-05-02T20:58:56.214Z,100586.87
2023-05-02T21:01:23.357Z,100585.42
2023-05-02T21:03:50.738Z,100585.46
2023-05-02T21:06:19.596Z,100588.55
2023-05-02T21:08:46.959Z,100591.03
2023-05-02T21:11:15.650Z,100585.48
2023-05-02T21:13:43.633Z,100584.10
2023-05-02T21:16:16.727Z,100583.18
2023-05-02T21:18:46.519Z,100579.73
2023-05-02T21:21:17.989Z,100578.22
2023-05-02T21:23:51.978Z,100583.77
2023-05-02T21:26:20.574Z,100587.89
2023-05-02T21:28:47.923Z,100589.18
2023-05-02T21:31:18.691Z,100592.98
2023-05-02T21:33:46.109Z,100588.92
2023-05-02T21:36:13.055Z,100593.05
2023-05-02T21:38:42.863Z,100591.64
2023-05-02T21:41:09.808Z,100592.02
2023-05-02T21:43:39.193Z,100592.76
2023-05-02T21:46:07.295Z,100593.61
2023-05-02T21:48:35.152Z,100594.84
2023-05-02T21:51:07.484Z,100592.90
2023-05-02T21:53:34.587Z,100592.66
2023-05-02T21:56:01.729Z,100592.67
2023-05-02T21:58:32.279Z,100586.92
2023-05-02T22:00:59.759Z,100587.10
2023-05-02T22:03:42.631Z,100586.61
2023-05-02T22:06:10.778Z,100587.61
2023-05-02T22:08:38.273Z,100591.08
2023-05-02T22:11:10.744Z,100589.34
2023-05-02T22:13:38.506Z,100590.52
2023-05-02T22:16:06.974Z,100594.16
2023-05-02T22:18:35.887Z,100589.61
2023-05-02T22:21:03.844Z,100587.05
2023-05-02T22:23:31.370Z,100594.05
2023-05-02T22:25:59.031Z,100596.86
2023-05-02T22:28:27.245Z,100598.31
2023-05-02T22:30:59.011Z,100602.52
2023-05-02T22:33:30.664Z,100602.65
2023-05-02T22:36:18.177Z,100603.52
2023-05-02T22:38:46.148Z,100605.47
2023-05-02T22:41:13.400Z,100605.13
2023-05-02T22:43:40.548Z,100602.48
2023-05-02T22:46:07.627Z,100600.77
2023-05-02T22:48:34.746Z,100598.52
2023-05-02T22:51:02.404Z,100599.08
2023-05-02T22:53:38.981Z,100599.95
2023-05-02T22:56:07.056Z,100598.95
2023-05-02T22:58:34.101Z,100599.47
2023-05-02T23:01:05.257Z,100604.80
2023-05-02T23:03:35.686Z,100605.76
2023-05-02T23:06:03.675Z,100607.27
2023-05-02T23:08:30.881Z,100609.88
2023-05-02T23:10:57.939Z,100611.20
2023-05-02T23:13:26.234Z,100615.46
2023-05-02T23:16:02.622Z,100617.42
2023-05-02T23:18:29.838Z,100619.02
2023-05-02T23:20:57.088Z,100616.27
2023-05-02T23:23:24.547Z,100614.88
2023-05-02T23:25:52.613Z,100618.34
2023-05-02T23:28:19.776Z,100614.11
2023-05-02T23:30:46.925Z,100615.89
2023-05-02T23:33:16.759Z,100619.61
2023-05-02T23:35:43.776Z,100618.63
2023-05-02T23:38:10.968Z,100617.59
2023-05-02T23:40:39.421Z,100614.68
2023-05-02T23:43:08.846Z,100615.27
2023-05-02T23:45:36.193Z,100613.19
2023-05-02T23:48:04.762Z,100613.91
2023-05-02T23:50:34.795Z,100609.91
2023-05-02T23:53:01.845Z,100611.17
2023-05-02T23:55:32.188Z,100610.11
2023-05-02T23:58:01.683Z,100612.08
